Santa Ana, California
Current Conditions -  °F | °C
As of 7:53 PM on Thursday 27 Nov 2014 (Local Time) from KSNA Reporting Station
Clear Clear  
Wind Chill: 66°   Ceiling: Unl
Heat Index: 66°   Visibility: 10mi
Dew Point: 45°   Wind: 0mph
Humidity: 47%   Direction: NA
Pressure: 30.02"   Gusts: NA
Location:  33.75°N, 117.87°W
Report Text: KSNA 280353Z 00000KT 10SM CLR 19/07 A3002 RMK AO2 SLP164 T01890072
Loading
Personal Weather Stations






























Interactive Weather Map New forecast layout! Learn more

10-Day Weather Forecast

Advertisements
Track Severe Weather on mobile